LNB weather

Lamen Bay Airport
Lamen Bay, Shefa, Vanuatu

Public forecast

Using degrees Celsius for public forecast. Weather courtesy of forecast.io.

Closest aviation weather report (METAR) to Lamen Bay Airport

Closest report is Lamap Airport, 20.4 nm (37.7 km) WNW. Retrieved 2019/12/15 06:00 UTC (2 hours ago):

NVSL 150600Z AUTO 16005KT //// // NCD 28/27 Q1005

Closest aviation forecast (TAF) to Lamen Bay Airport

Closest forecast is Lamap Airport, 20.4 nm (37.7 km) WNW. Retrieved 2019/12/15 06:34 UTC (1 hour ago):

TAF NVSL 150430Z 1506/1606 13512KT 9999 SCT020 PROB40 INTER 1506/1509 9000 -SHRA BKN018 PROB40 INTER 1512/1515 9000 -SHRA BKN018 BECMG 1507/1509 13507KT